createdAt,value
2022-10-26T00:01:23.256Z,26.57
2022-10-26T00:06:20.315Z,26.44
2022-10-26T00:11:18.568Z,26.25
2022-10-26T00:16:17.803Z,25.95
2022-10-26T00:21:17.999Z,25.60
2022-10-26T00:26:17.213Z,25.54
2022-10-26T00:31:17.441Z,24.88
2022-10-26T00:36:16.714Z,24.84
2022-10-26T00:41:15.820Z,24.81
2022-10-26T00:46:14.041Z,24.76
2022-10-26T00:51:17.261Z,24.58
2022-10-26T00:56:14.440Z,24.37
2022-10-26T01:01:12.792Z,24.21
2022-10-26T01:06:10.790Z,24.08
2022-10-26T01:11:10.963Z,23.87
2022-10-26T01:16:11.137Z,23.55
2022-10-26T01:21:09.300Z,23.58
2022-10-26T01:26:06.492Z,23.60
2022-10-26T01:31:05.699Z,23.39
2022-10-26T01:36:08.957Z,23.01
2022-10-26T01:41:06.183Z,23.10
2022-10-26T01:46:04.408Z,23.19
2022-10-26T01:51:03.678Z,23.15
2022-10-26T01:56:03.818Z,23.09
2022-10-26T02:01:03.349Z,23.02
2022-10-26T02:06:02.305Z,22.92
2022-10-26T02:11:01.604Z,22.77
2022-10-26T02:16:00.924Z,22.80
2022-10-26T02:20:59.041Z,22.68
2022-10-26T02:25:58.344Z,22.51
2022-10-26T02:30:59.653Z,22.47
2022-10-26T02:35:56.992Z,22.42
2022-10-26T02:40:56.085Z,22.42
2022-10-26T02:45:54.423Z,22.28
2022-10-26T02:50:54.754Z,22.39
2022-10-26T02:55:54.879Z,22.40
2022-10-26T03:00:57.199Z,22.46
2022-10-26T03:05:53.522Z,22.35
2022-10-26T03:10:51.841Z,22.43
2022-10-26T03:15:51.131Z,22.52
2022-10-26T03:20:51.428Z,22.55
2022-10-26T03:25:49.748Z,22.54
2022-10-26T03:30:50.061Z,22.68
2022-10-26T03:35:49.348Z,22.60
2022-10-26T03:40:47.689Z,22.65
2022-10-26T03:45:46.856Z,22.85
2022-10-26T03:50:46.014Z,23.00
2022-10-26T03:55:45.147Z,23.07
2022-10-26T04:00:45.281Z,23.00
2022-10-26T04:05:43.613Z,22.97
2022-10-26T04:10:42.818Z,22.95
2022-10-26T04:15:43.987Z,23.01
2022-10-26T04:20:43.293Z,22.73
2022-10-26T04:25:40.619Z,22.80
2022-10-26T04:30:39.757Z,22.72
2022-10-26T04:35:38.902Z,22.51
2022-10-26T04:40:38.030Z,22.31
2022-10-26T04:45:37.196Z,22.22
2022-10-26T04:50:36.305Z,22.17
2022-10-26T04:55:35.636Z,22.12
2022-10-26T05:00:34.767Z,22.00
2022-10-26T05:05:35.083Z,21.91
2022-10-26T05:10:33.391Z,21.79
2022-10-26T05:15:32.860Z,22.00
2022-10-26T05:20:31.955Z,21.98
2022-10-26T05:25:31.288Z,22.18
2022-10-26T05:30:28.613Z,21.90
2022-10-26T05:35:28.975Z,21.77
2022-10-26T05:40:29.264Z,21.96
2022-10-26T05:45:28.584Z,22.02
2022-10-26T05:50:27.923Z,22.12
2022-10-26T05:55:27.029Z,22.33
2022-10-26T06:00:25.321Z,22.46
2022-10-26T06:05:25.650Z,22.68
2022-10-26T06:10:25.008Z,22.80
2022-10-26T06:15:25.328Z,22.88
2022-10-26T06:20:24.649Z,22.94
2022-10-26T06:25:22.980Z,23.01
2022-10-26T06:30:22.305Z,23.09
2022-10-26T06:35:21.471Z,23.13
2022-10-26T06:40:20.770Z,23.15
2022-10-26T06:45:20.126Z,22.95
2022-10-26T06:50:19.235Z,22.73
2022-10-26T06:55:18.531Z,22.73
2022-10-26T07:00:21.036Z,22.80
2022-10-26T07:05:18.163Z,22.95
2022-10-26T07:10:17.498Z,23.07
2022-10-26T07:15:15.794Z,23.25
2022-10-26T07:20:16.153Z,23.54
2022-10-26T07:25:14.271Z,24.03
2022-10-26T07:30:14.604Z,24.50
2022-10-26T07:35:12.888Z,24.84
2022-10-26T07:40:12.216Z,25.06
2022-10-26T07:45:11.332Z,25.00
2022-10-26T07:50:11.631Z,25.02
2022-10-26T07:55:09.901Z,25.06
2022-10-26T08:00:09.203Z,25.27
2022-10-26T08:05:08.517Z,25.83
2022-10-26T08:10:07.823Z,26.23
2022-10-26T08:15:07.155Z,26.72
2022-10-26T08:20:08.448Z,26.81
2022-10-26T08:25:06.732Z,27.04
2022-10-26T08:30:05.010Z,27.50
2022-10-26T08:35:05.322Z,27.40
2022-10-26T08:40:04.661Z,27.44
2022-10-26T08:45:02.931Z,27.22
2022-10-26T08:50:03.223Z,27.06
2022-10-26T08:55:01.501Z,27.02
2022-10-26T09:00:02.806Z,27.22
2022-10-26T09:05:00.148Z,27.39
2022-10-26T09:10:00.308Z,27.41
2022-10-26T09:14:59.392Z,27.39
2022-10-26T09:19:57.712Z,27.54
2022-10-26T09:24:57.013Z,27.88
2022-10-26T09:29:56.346Z,27.75
2022-10-26T09:34:55.641Z,27.66
2022-10-26T09:39:56.924Z,27.46
2022-10-26T09:44:55.186Z,27.28
2022-10-26T09:49:54.456Z,27.25
2022-10-26T09:54:54.710Z,27.27
2022-10-26T09:59:52.970Z,27.49
2022-10-26T10:04:51.242Z,27.57
2022-10-26T10:09:51.529Z,27.79
2022-10-26T10:14:49.793Z,27.87
2022-10-26T10:19:51.097Z,28.09
2022-10-26T10:24:49.387Z,27.99
2022-10-26T10:29:47.712Z,27.72
2022-10-26T10:34:47.093Z,27.47
2022-10-26T10:39:46.195Z,27.19
2022-10-26T10:44:46.491Z,27.13
2022-10-26T10:49:44.786Z,27.37
2022-10-26T10:54:44.087Z,27.72
2022-10-26T10:59:43.390Z,27.57
2022-10-26T11:04:44.723Z,27.93
2022-10-26T11:09:44.168Z,27.72
2022-10-26T11:14:43.262Z,27.54
2022-10-26T11:19:41.464Z,27.51
2022-10-26T11:24:39.795Z,27.13
2022-10-26T11:29:39.863Z,27.02
2022-10-26T11:34:38.147Z,27.04
2022-10-26T11:39:37.276Z,26.77
2022-10-26T11:44:37.410Z,26.72
2022-10-26T11:49:36.713Z,26.97
2022-10-26T11:54:36.149Z,27.02
2022-10-26T11:59:36.281Z,26.92
2022-10-26T12:04:35.587Z,26.95
2022-10-26T12:09:35.593Z,27.10
2022-10-26T12:14:32.209Z,27.00
2022-10-26T12:19:32.530Z,26.88
2022-10-26T12:24:31.878Z,26.77
2022-10-26T12:29:30.148Z,26.54
2022-10-26T12:34:30.425Z,26.51
2022-10-26T12:39:28.705Z,26.57
2022-10-26T12:44:28.001Z,26.89
2022-10-26T12:49:26.311Z,27.02
2022-10-26T12:54:26.634Z,27.04
2022-10-26T12:59:26.942Z,26.92
2022-10-26T13:04:25.260Z,26.75
2022-10-26T13:09:24.544Z,26.73
2022-10-26T13:14:23.852Z,26.52
2022-10-26T13:19:24.230Z,26.37
2022-10-26T13:24:23.305Z,26.45
2022-10-26T13:29:22.594Z,26.52
2022-10-26T13:34:20.801Z,26.66
2022-10-26T13:39:20.004Z,26.81
2022-10-26T13:44:20.419Z,26.94
2022-10-26T13:49:18.400Z,26.84
2022-10-26T13:54:17.628Z,26.85
2022-10-26T13:59:19.965Z,26.72
2022-10-26T14:04:16.133Z,26.65
2022-10-26T14:09:16.329Z,26.54
2022-10-26T14:14:15.523Z,26.33
2022-10-26T14:19:17.824Z,26.26
2022-10-26T14:24:13.063Z,26.06
2022-10-26T14:29:12.284Z,25.72
2022-10-26T14:34:11.477Z,25.57
2022-10-26T14:39:10.676Z,25.47
2022-10-26T14:44:09.881Z,25.23
2022-10-26T14:49:09.078Z,25.13
2022-10-26T14:54:08.272Z,25.03
2022-10-26T14:59:07.440Z,24.99
2022-10-26T15:04:06.668Z,25.23
2022-10-26T15:09:05.928Z,25.14
2022-10-26T15:14:07.121Z,25.06
2022-10-26T15:19:04.315Z,24.77
2022-10-26T15:24:05.528Z,25.00
2022-10-26T15:29:03.693Z,25.03
2022-10-26T15:34:01.877Z,24.60
2022-10-26T15:39:01.145Z,24.49
2022-10-26T15:44:01.332Z,24.55
2022-10-26T15:48:59.524Z,24.46
2022-10-26T15:53:58.675Z,24.53
2022-10-26T15:58:57.859Z,24.24
2022-10-26T16:03:57.098Z,24.20
2022-10-26T16:08:57.305Z,23.98
2022-10-26T16:13:58.377Z,24.12
2022-10-26T16:19:06.195Z,24.20
2022-10-26T16:23:54.257Z,24.69
2022-10-26T16:28:53.531Z,25.02
2022-10-26T16:33:53.551Z,24.78
2022-10-26T16:38:51.776Z,24.49
2022-10-26T16:43:51.243Z,24.31
2022-10-26T16:48:50.584Z,24.52
2022-10-26T16:53:49.436Z,24.18
2022-10-26T16:58:49.620Z,24.13
2022-10-26T17:03:49.760Z,23.93
2022-10-26T17:08:47.061Z,23.84
2022-10-26T17:13:48.574Z,23.54
2022-10-26T17:18:58.394Z,23.53
2022-10-26T17:23:45.623Z,23.48
2022-10-26T17:28:45.092Z,23.97
2022-10-26T17:33:44.477Z,24.03
2022-10-26T17:38:42.670Z,23.94
2022-10-26T17:43:45.916Z,24.31
2022-10-26T17:48:42.962Z,25.00
2022-10-26T17:53:40.308Z,24.31
2022-10-26T17:58:41.486Z,25.10
2022-10-26T18:03:39.688Z,25.30
2022-10-26T18:08:37.894Z,25.30
2022-10-26T18:13:38.076Z,25.62
2022-10-26T18:18:37.289Z,25.52
2022-10-26T18:23:36.453Z,25.95
2022-10-26T18:28:36.429Z,26.33
2022-10-26T18:33:33.830Z,26.45
2022-10-26T18:38:33.319Z,26.35
2022-10-26T18:43:34.370Z,26.70
2022-10-26T18:48:33.574Z,26.54
2022-10-26T18:53:29.787Z,26.54
2022-10-26T18:58:31.012Z,26.48
2022-10-26T19:03:33.988Z,26.35
2022-10-26T19:08:28.091Z,26.37
2022-10-26T19:13:31.799Z,26.55
2022-10-26T19:18:27.025Z,26.89
2022-10-26T19:23:25.931Z,27.17
2022-10-26T19:28:26.165Z,27.03
2022-10-26T19:33:24.794Z,26.94
2022-10-26T19:38:25.766Z,26.91
2022-10-26T19:43:23.307Z,26.77
2022-10-26T19:48:22.509Z,26.84
2022-10-26T19:53:23.619Z,27.12
2022-10-26T19:58:20.692Z,27.44
2022-10-26T20:03:20.231Z,27.55
2022-10-26T20:08:24.391Z,27.40
2022-10-26T20:13:19.341Z,27.39
2022-10-26T20:18:28.856Z,27.21
2022-10-26T20:23:17.649Z,27.21
2022-10-26T20:28:16.144Z,27.07
2022-10-26T20:33:15.364Z,27.07
2022-10-26T20:38:14.577Z,27.24
2022-10-26T20:43:16.493Z,27.54
2022-10-26T20:48:13.888Z,27.69
2022-10-26T20:53:11.878Z,27.59
2022-10-26T20:58:12.396Z,27.60
2022-10-26T21:03:10.236Z,27.46
2022-10-26T21:08:10.460Z,27.27
2022-10-26T21:13:10.643Z,27.24
2022-10-26T21:18:07.830Z,27.54
2022-10-26T21:23:08.038Z,27.32
2022-10-26T21:28:06.235Z,27.50
2022-10-26T21:33:06.480Z,26.63
2022-10-26T21:38:04.675Z,26.67
2022-10-26T21:43:03.858Z,26.91
2022-10-26T21:48:03.090Z,27.02
2022-10-26T21:53:03.278Z,27.06
2022-10-26T21:58:02.491Z,27.36
2022-10-26T22:03:02.650Z,27.78
2022-10-26T22:08:00.822Z,28.00
2022-10-26T22:12:58.023Z,28.25
2022-10-26T22:17:57.192Z,28.11
2022-10-26T22:22:58.401Z,27.96
2022-10-26T22:27:57.578Z,28.21
2022-10-26T22:32:57.739Z,28.15
2022-10-26T22:37:54.946Z,28.54
2022-10-26T22:42:54.264Z,28.55
2022-10-26T22:47:53.275Z,27.75
2022-10-26T22:52:52.671Z,26.95
2022-10-26T22:57:51.866Z,27.37
2022-10-26T23:02:52.927Z,27.14
2022-10-26T23:07:50.241Z,27.49
2022-10-26T23:12:50.462Z,27.36
2022-10-26T23:17:49.026Z,27.31
2022-10-26T23:22:48.127Z,27.29
2022-10-26T23:27:49.283Z,27.28
2022-10-26T23:32:47.543Z,27.27
2022-10-26T23:37:45.763Z,27.07
2022-10-26T23:42:44.946Z,26.94
2022-10-26T23:47:44.123Z,26.73
2022-10-26T23:52:44.316Z,26.54
2022-10-26T23:57:42.481Z,26.32
